LLB811 SAEZ-SPJC
Flight info
| Callsign | LLB811 |
|---|---|
| Flight time | N/A |
| Altitude | 30000 |
| Route | BIVAM1J BIVAM UW8 ERE UT680 TUC UL550 DILAL/N0462F320 UL550 SCO |
| Aircraft | B738/M-SDE2E3FGHIRWXY/LB1 |
Departure
| Time | 2026-05-01 14:22 |
|---|---|
| Airport | Ezeiza International Airport - Ministro Pistarini (SAEZ) |
Arrival
| Time | N/A |
|---|---|
| Airport | Jorge Chávez International Airport (SPJC) |
| Time | Latitude | Longitude | Altitude | Speed | Heading |
|---|---|---|---|---|---|
| 2026-05-01 13:38 | -34.81349 | -58.53717 | 72 ft | 0 kts | 309° |
| 2026-05-01 14:11 | -34.81351 | -58.53714 | 72 ft | 3 kts | 310° |
| 2026-05-01 14:11 | -34.81387 | -58.53665 | 68 ft | 4 kts | 314° |
| 2026-05-01 14:11 | -34.81406 | -58.53642 | 65 ft | 4 kts | 310° |
| 2026-05-01 14:12 | -34.81416 | -58.53625 | 64 ft | 4 kts | 291° |
| 2026-05-01 14:12 | -34.81419 | -58.53609 | 62 ft | 2 kts | 207° |
| 2026-05-01 14:12 | -34.81418 | -58.53608 | 68 ft | 0 kts | 205° |
| 2026-05-01 14:15 | -34.81438 | -58.53617 | 68 ft | 6 kts | 198° |
| 2026-05-01 14:15 | -34.81500 | -58.53643 | 72 ft | 12 kts | 203° |
| 2026-05-01 14:15 | -34.81569 | -58.53699 | 70 ft | 12 kts | 219° |
| 2026-05-01 14:16 | -34.81628 | -58.53768 | 69 ft | 11 kts | 224° |
| 2026-05-01 14:16 | -34.81666 | -58.53810 | 72 ft | 0 kts | 221° |
| 2026-05-01 14:16 | -34.81680 | -58.53802 | 65 ft | 5 kts | 124° |
| 2026-05-01 14:17 | -34.81729 | -58.53736 | 72 ft | 16 kts | 139° |
| 2026-05-01 14:17 | -34.81815 | -58.53679 | 69 ft | 3 kts | 158° |
| 2026-05-01 14:17 | -34.81816 | -58.53678 | 69 ft | 0 kts | 158° |
| 2026-05-01 14:18 | -34.81825 | -58.53674 | 72 ft | 6 kts | 158° |
| 2026-05-01 14:18 | -34.81903 | -58.53634 | 70 ft | 18 kts | 155° |
| 2026-05-01 14:18 | -34.82043 | -58.53547 | 69 ft | 25 kts | 150° |
| 2026-05-01 14:18 | -34.82161 | -58.53482 | 69 ft | 31 kts | 154° |
| 2026-05-01 14:19 | -34.82414 | -58.53339 | 72 ft | 29 kts | 155° |
| 2026-05-01 14:19 | -34.82598 | -58.53240 | 71 ft | 28 kts | 157° |
| 2026-05-01 14:19 | -34.82766 | -58.53147 | 72 ft | 26 kts | 155° |
| 2026-05-01 14:19 | -34.82927 | -58.53057 | 68 ft | 25 kts | 155° |
| 2026-05-01 14:20 | -34.83077 | -58.52972 | 70 ft | 23 kts | 155° |
| 2026-05-01 14:20 | -34.83359 | -58.52812 | 72 ft | 22 kts | 155° |
| 2026-05-01 14:20 | -34.83493 | -58.52736 | 68 ft | 21 kts | 153° |
| 2026-05-01 14:21 | -34.83525 | -58.52585 | 70 ft | 20 kts | 72° |
| 2026-05-01 14:21 | -34.83436 | -58.52486 | 68 ft | 19 kts | 346° |
| 2026-05-01 14:21 | -34.83356 | -58.52515 | 70 ft | 8 kts | 345° |
| 2026-05-01 14:22 | -34.82881 | -58.52682 | 72 ft | 93 kts | 344° |
| 2026-05-01 14:22 | -34.82060 | -58.52967 | 64 ft | 150 kts | 344° |
| 2026-05-01 14:22 | -34.80908 | -58.53357 | 270 ft | 184 kts | 345° |
| 2026-05-01 14:22 | -34.79662 | -58.53817 | 1016 ft | 188 kts | 342° |
| 2026-05-01 14:23 | -34.78482 | -58.54292 | 2061 ft | 172 kts | 339° |
| 2026-05-01 14:23 | -34.77274 | -58.54719 | 2558 ft | 193 kts | 340° |
| 2026-05-01 14:23 | -34.76142 | -58.55677 | 2726 ft | 212 kts | 300° |
| 2026-05-01 14:23 | -34.75837 | -58.57464 | 3121 ft | 225 kts | 268° |
| 2026-05-01 14:24 | -34.75959 | -58.59381 | 3740 ft | 228 kts | 268° |
| 2026-05-01 14:24 | -34.76058 | -58.61335 | 4316 ft | 232 kts | 268° |
| 2026-05-01 14:24 | -34.76143 | -58.63308 | 4953 ft | 235 kts | 269° |
| 2026-05-01 14:24 | -34.76217 | -58.65280 | 5704 ft | 233 kts | 270° |
| 2026-05-01 14:25 | -34.76286 | -58.67264 | 6311 ft | 239 kts | 271° |
| 2026-05-01 14:25 | -34.76353 | -58.69338 | 6649 ft | 255 kts | 271° |
| 2026-05-01 14:25 | -34.76423 | -58.71512 | 7327 ft | 258 kts | 271° |
| 2026-05-01 14:25 | -34.76625 | -58.73707 | 8021 ft | 267 kts | 255° |
| 2026-05-01 14:26 | -34.77746 | -58.75571 | 8698 ft | 286 kts | 221° |
| 2026-05-01 14:26 | -34.81804 | -58.76067 | 9934 ft | 323 kts | 157° |
| 2026-05-01 14:26 | -34.83693 | -58.74475 | 10320 ft | 339 kts | 140° |
| 2026-05-01 14:27 | -34.85755 | -58.72936 | 10439 ft | 357 kts | 166° |
| 2026-05-01 14:27 | -34.88215 | -58.72563 | 10628 ft | 369 kts | 181° |
| 2026-05-01 14:27 | -34.90802 | -58.71837 | 10745 ft | 396 kts | 155° |
| 2026-05-01 14:28 | -34.94973 | -58.67257 | 11736 ft | 411 kts | 128° |
| 2026-05-01 14:28 | -34.96601 | -58.64382 | 12319 ft | 413 kts | 121° |
| 2026-05-01 14:28 | -34.97943 | -58.61262 | 12871 ft | 416 kts | 111° |
| 2026-05-01 14:28 | -34.98546 | -58.57817 | 13366 ft | 418 kts | 89° |
| 2026-05-01 14:29 | -34.98196 | -58.54324 | 13868 ft | 415 kts | 70° |
| 2026-05-01 14:29 | -34.97022 | -58.51183 | 14318 ft | 411 kts | 52° |
| 2026-05-01 14:30 | -34.90052 | -58.46230 | 15759 ft | 389 kts | 359° |
| 2026-05-01 14:30 | -34.87374 | -58.46403 | 16235 ft | 383 kts | 344° |
| 2026-05-01 14:30 | -34.84905 | -58.47532 | 16693 ft | 378 kts | 324° |
| 2026-05-01 14:31 | -34.81635 | -58.52363 | 17676 ft | 377 kts | 307° |
| 2026-05-01 14:31 | -34.79650 | -58.54411 | 18025 ft | 387 kts | 330° |
| 2026-05-01 14:31 | -34.77018 | -58.55288 | 18477 ft | 399 kts | 352° |
| 2026-05-01 14:31 | -34.74220 | -58.55203 | 18957 ft | 404 kts | 360° |
| 2026-05-01 14:32 | -34.71401 | -58.54876 | 19359 ft | 407 kts | 0° |
| 2026-05-01 14:32 | -34.68560 | -58.54598 | 19737 ft | 408 kts | 358° |
| 2026-05-01 14:32 | -34.65715 | -58.54452 | 20152 ft | 408 kts | 356° |
| 2026-05-01 14:32 | -34.62823 | -58.54426 | 20563 ft | 409 kts | 354° |
| 2026-05-01 14:33 | -34.59963 | -58.54482 | 20949 ft | 411 kts | 353° |
| 2026-05-01 14:33 | -34.57106 | -58.54583 | 21331 ft | 412 kts | 353° |
| 2026-05-01 14:33 | -34.54218 | -58.54705 | 21724 ft | 414 kts | 352° |
| 2026-05-01 14:33 | -34.51363 | -58.54832 | 22086 ft | 416 kts | 352° |
| 2026-05-01 14:34 | -34.48458 | -58.54959 | 22443 ft | 418 kts | 352° |
| 2026-05-01 14:34 | -34.45537 | -58.55085 | 22799 ft | 420 kts | 352° |
| 2026-05-01 14:34 | -34.42589 | -58.55211 | 23137 ft | 423 kts | 352° |
| 2026-05-01 14:34 | -34.39639 | -58.55335 | 23469 ft | 425 kts | 352° |
| 2026-05-01 14:35 | -34.36677 | -58.55459 | 23745 ft | 427 kts | 352° |
| 2026-05-01 14:35 | -34.33708 | -58.55582 | 24021 ft | 428 kts | 352° |
| 2026-05-01 14:35 | -34.30712 | -58.55707 | 24307 ft | 430 kts | 352° |
| 2026-05-01 14:35 | -34.27750 | -58.55830 | 24586 ft | 431 kts | 352° |
| 2026-05-01 14:36 | -34.24738 | -58.55956 | 24857 ft | 432 kts | 352° |
| 2026-05-01 14:36 | -34.21785 | -58.56490 | 25099 ft | 425 kts | 337° |
| 2026-05-01 14:36 | -34.19144 | -58.58020 | 25371 ft | 418 kts | 323° |
| 2026-05-01 14:36 | -34.16956 | -58.60312 | 25632 ft | 415 kts | 309° |
| 2026-05-01 14:37 | -34.15380 | -58.63181 | 25877 ft | 415 kts | 296° |
| 2026-05-01 14:37 | -34.14362 | -58.66437 | 26193 ft | 416 kts | 286° |
| 2026-05-01 14:37 | -34.13903 | -58.69892 | 26547 ft | 418 kts | 274° |
| 2026-05-01 14:37 | -34.14103 | -58.73407 | 26953 ft | 419 kts | 268° |
| 2026-05-01 14:38 | -34.13990 | -58.76885 | 27282 ft | 413 kts | 283° |
| 2026-05-01 14:38 | -34.13070 | -58.80149 | 27603 ft | 410 kts | 297° |
| 2026-05-01 14:38 | -34.11545 | -58.83051 | 27967 ft | 410 kts | 307° |
| 2026-05-01 14:38 | -34.09540 | -58.85495 | 28307 ft | 412 kts | 320° |
| 2026-05-01 14:39 | -34.07148 | -58.87377 | 28670 ft | 414 kts | 326° |
| 2026-05-01 14:39 | -34.04664 | -58.89128 | 29033 ft | 413 kts | 327° |
| 2026-05-01 14:39 | -34.02181 | -58.90871 | 29370 ft | 413 kts | 326° |
| 2026-05-01 14:39 | -33.99714 | -58.92644 | 29729 ft | 412 kts | 326° |
| 2026-05-01 14:40 | -33.98097 | -58.93822 | 29924 ft | 411 kts | 326° |
| 2026-05-01 14:40 | -33.92335 | -58.98042 | 29893 ft | 412 kts | 326° |
| 2026-05-01 14:41 | -33.87443 | -59.01617 | 29904 ft | 410 kts | 326° |
| 2026-05-01 14:41 | -33.82595 | -59.05154 | 29906 ft | 409 kts | 325° |
| 2026-05-01 14:42 | -33.77711 | -59.08714 | 29905 ft | 408 kts | 326° |
| 2026-05-01 14:42 | -33.72870 | -59.12237 | 29904 ft | 409 kts | 326° |
| 2026-05-01 14:43 | -33.67983 | -59.15790 | 29906 ft | 409 kts | 326° |
| 2026-05-01 14:43 | -33.63138 | -59.19307 | 29903 ft | 410 kts | 326° |
| 2026-05-01 14:44 | -33.58243 | -59.22856 | 29900 ft | 410 kts | 326° |
| 2026-05-01 14:44 | -33.50889 | -59.28177 | 29896 ft | 411 kts | 326° |
| 2026-05-01 14:45 | -33.44358 | -59.32895 | 29901 ft | 411 kts | 326° |
| 2026-05-01 14:46 | -33.39441 | -59.36441 | 29898 ft | 412 kts | 326° |
| 2026-05-01 14:46 | -33.32089 | -59.41735 | 29898 ft | 412 kts | 326° |
| 2026-05-01 14:47 | -33.27162 | -59.45276 | 29900 ft | 412 kts | 326° |
| 2026-05-01 14:48 | -33.19809 | -59.50553 | 29898 ft | 412 kts | 326° |
| 2026-05-01 14:48 | -33.12421 | -59.55844 | 29894 ft | 411 kts | 326° |
| 2026-05-01 14:49 | -33.02638 | -59.62834 | 29898 ft | 410 kts | 326° |
| 2026-05-01 14:50 | -32.92866 | -59.69798 | 29892 ft | 409 kts | 326° |
| 2026-05-01 14:51 | -32.85575 | -59.74983 | 29894 ft | 408 kts | 326° |
| 2026-05-01 14:52 | -32.78249 | -59.80182 | 29893 ft | 408 kts | 326° |
| 2026-05-01 14:53 | -32.70961 | -59.85346 | 29891 ft | 408 kts | 326° |
| 2026-05-01 14:53 | -32.66082 | -59.88797 | 29886 ft | 408 kts | 326° |
| 2026-05-01 14:54 | -32.61197 | -59.92248 | 29883 ft | 408 kts | 326° |
| 2026-05-01 14:54 | -32.56335 | -59.95678 | 29898 ft | 408 kts | 326° |
| 2026-05-01 14:55 | -32.51440 | -59.99130 | 29903 ft | 408 kts | 326° |
| 2026-05-01 14:55 | -32.46553 | -60.02572 | 29900 ft | 408 kts | 326° |
| 2026-05-01 14:56 | -32.41697 | -60.05990 | 29898 ft | 408 kts | 325° |
| 2026-05-01 14:56 | -32.36813 | -60.09422 | 29886 ft | 408 kts | 325° |
| 2026-05-01 14:57 | -32.31921 | -60.12855 | 29889 ft | 408 kts | 325° |
| 2026-05-01 14:57 | -32.24620 | -60.17972 | 29891 ft | 407 kts | 325° |
| 2026-05-01 14:58 | -32.19724 | -60.21398 | 29887 ft | 407 kts | 325° |
| 2026-05-01 14:58 | -32.14853 | -60.24803 | 29888 ft | 407 kts | 325° |
| 2026-05-01 14:59 | -32.09970 | -60.28211 | 29883 ft | 408 kts | 325° |
| 2026-05-01 14:59 | -32.05104 | -60.31603 | 29889 ft | 408 kts | 325° |
| 2026-05-01 15:00 | -31.97756 | -60.36717 | 29899 ft | 407 kts | 324° |
| 2026-05-01 15:01 | -31.92899 | -60.40093 | 29902 ft | 407 kts | 324° |
| 2026-05-01 15:01 | -31.88010 | -60.43487 | 29912 ft | 407 kts | 324° |
| 2026-05-01 15:02 | -31.83124 | -60.46875 | 29915 ft | 407 kts | 324° |
| 2026-05-01 15:02 | -31.78267 | -60.50320 | 29907 ft | 406 kts | 322° |
| 2026-05-01 15:03 | -31.73563 | -60.53930 | 29911 ft | 405 kts | 322° |
| 2026-05-01 15:03 | -31.68836 | -60.57583 | 29903 ft | 406 kts | 322° |
| 2026-05-01 15:04 | -31.64128 | -60.61189 | 29899 ft | 406 kts | 322° |
| 2026-05-01 15:04 | -31.59382 | -60.64803 | 29895 ft | 406 kts | 322° |
| 2026-05-01 15:05 | -31.54636 | -60.68406 | 29901 ft | 405 kts | 322° |
| 2026-05-01 15:05 | -31.49915 | -60.71986 | 29905 ft | 405 kts | 322° |
| 2026-05-01 15:06 | -31.45179 | -60.75574 | 29891 ft | 405 kts | 322° |
| 2026-05-01 15:06 | -31.40443 | -60.79157 | 29890 ft | 405 kts | 322° |
| 2026-05-01 15:07 | -31.35704 | -60.82738 | 29881 ft | 404 kts | 322° |
| 2026-05-01 15:07 | -31.30993 | -60.86294 | 29883 ft | 404 kts | 321° |
| 2026-05-01 15:08 | -31.26270 | -60.89855 | 29881 ft | 404 kts | 321° |
| 2026-05-01 15:08 | -31.21534 | -60.93421 | 29883 ft | 404 kts | 321° |
| 2026-05-01 15:09 | -31.16813 | -60.96972 | 29880 ft | 404 kts | 321° |
| 2026-05-01 15:09 | -31.12114 | -61.00502 | 29884 ft | 403 kts | 321° |
| 2026-05-01 15:10 | -31.07392 | -61.04047 | 29889 ft | 403 kts | 321° |
| 2026-05-01 15:10 | -31.00337 | -61.09326 | 29885 ft | 403 kts | 321° |
| 2026-05-01 15:11 | -30.93243 | -61.14614 | 29885 ft | 402 kts | 321° |
| 2026-05-01 15:12 | -30.88546 | -61.18111 | 29894 ft | 402 kts | 321° |
| 2026-05-01 15:12 | -30.81448 | -61.23390 | 29899 ft | 405 kts | 321° |
| 2026-05-01 15:13 | -30.74240 | -61.28749 | 29898 ft | 417 kts | 321° |
| 2026-05-01 15:14 | -30.69308 | -61.32405 | 29891 ft | 421 kts | 321° |
| 2026-05-01 15:14 | -30.61873 | -61.37903 | 29888 ft | 422 kts | 321° |
| 2026-05-01 15:15 | -30.51999 | -61.45194 | 29889 ft | 421 kts | 321° |
| 2026-05-01 15:16 | -30.42107 | -61.52482 | 29895 ft | 420 kts | 321° |
| 2026-05-01 15:18 | -30.29825 | -61.61507 | 29894 ft | 418 kts | 321° |
| 2026-05-01 15:19 | -30.20018 | -61.68694 | 29896 ft | 418 kts | 322° |
| 2026-05-01 15:19 | -30.12637 | -61.74093 | 29899 ft | 418 kts | 321° |
| 2026-05-01 15:20 | -30.05279 | -61.79463 | 29899 ft | 418 kts | 322° |
| 2026-05-01 15:21 | -30.00443 | -61.82989 | 29889 ft | 418 kts | 322° |
| 2026-05-01 15:21 | -29.95511 | -61.86581 | 29899 ft | 419 kts | 322° |
| 2026-05-01 15:22 | -29.88119 | -61.91984 | 29891 ft | 418 kts | 320° |
| 2026-05-01 15:22 | -29.83809 | -61.96305 | 29894 ft | 412 kts | 311° |
| 2026-05-01 15:23 | -29.79672 | -62.00883 | 29899 ft | 412 kts | 312° |
| 2026-05-01 15:23 | -29.75506 | -62.05458 | 29888 ft | 413 kts | 312° |
| 2026-05-01 15:24 | -29.71339 | -62.10011 | 29888 ft | 413 kts | 312° |
| 2026-05-01 15:24 | -29.67184 | -62.14543 | 29896 ft | 413 kts | 312° |
| 2026-05-01 15:25 | -29.62996 | -62.19103 | 29889 ft | 414 kts | 312° |
| 2026-05-01 15:25 | -29.58834 | -62.23630 | 29888 ft | 414 kts | 312° |
| 2026-05-01 15:26 | -29.55354 | -62.27413 | 29886 ft | 414 kts | 312° |
| 2026-05-01 15:26 | -29.51160 | -62.31964 | 29889 ft | 414 kts | 312° |
| 2026-05-01 15:27 | -29.46966 | -62.36512 | 29891 ft | 413 kts | 312° |
| 2026-05-01 15:28 | -29.40706 | -62.43289 | 29890 ft | 413 kts | 312° |
| 2026-05-01 15:28 | -29.36515 | -62.47820 | 29889 ft | 413 kts | 312° |
| 2026-05-01 15:29 | -29.30259 | -62.54573 | 29889 ft | 413 kts | 312° |
| 2026-05-01 15:30 | -29.21869 | -62.63611 | 29886 ft | 413 kts | 313° |
| 2026-05-01 15:31 | -29.09267 | -62.77147 | 29887 ft | 413 kts | 313° |
| 2026-05-01 15:32 | -29.00893 | -62.86118 | 29886 ft | 414 kts | 313° |
| 2026-05-01 15:34 | -28.88191 | -62.99670 | 29885 ft | 415 kts | 313° |